Time;durP1;ratioP1;P1;durP2;ratioP2;P2;SDS_P1;SDS_P2;PMS_P1;PMS_P2;Temp;Humidity;BMP_temperature;BMP_pressure;BME280_temperature;BME280_humidity;BME280_pressure;Samples;Min_cycle;Max_cycle;Signal;HPM_P1;HPM_P2
2023/04/02 00:01:53;;;;;;;5.83;4.10;;;;;;;;;;5112618;28;20207;-81
2023/04/02 00:04:22;;;;;;;4.77;4.30;;;;;;;;;;5112160;28;20203;-82
2023/04/02 00:06:54;;;;;;;4.97;4.47;;;;;;;;;;5112253;28;20315;-81
2023/04/02 00:09:30;;;;;;;6.23;5.03;;;;;;;;;;5112356;28;20291;-81
2023/04/02 00:12:01;;;;;;;5.73;4.00;;;;;;;;;;5112252;28;20218;-81
2023/04/02 00:14:32;;;;;;;8.40;5.47;;;;;;;;;;5112349;28;20264;-81
2023/04/02 00:17:01;;;;;;;11.47;4.93;;;;;;;;;;5112387;28;20269;-81
2023/04/02 00:19:32;;;;;;;8.70;4.17;;;;;;;;;;5114134;28;20229;-81
2023/04/02 00:22:01;;;;;;;7.80;6.67;;;;;;;;;;5115635;28;20348;-81
2023/04/02 00:24:31;;;;;;;6.13;4.87;;;;;;;;;;5116015;28;20192;-82
2023/04/02 00:26:59;;;;;;;11.43;4.83;;;;;;;;;;5115400;28;20225;-82
2023/04/02 00:29:27;;;;;;;9.77;5.20;;;;;;;;;;5116043;28;20204;-81
2023/04/02 00:31:59;;;;;;;7.93;5.47;;;;;;;;;;5115401;28;20253;-81
2023/04/02 00:34:30;;;;;;;5.87;4.60;;;;;;;;;;5115591;28;20211;-81
2023/04/02 00:36:59;;;;;;;7.43;3.47;;;;;;;;;;5115650;28;20287;-81
2023/04/02 00:39:29;;;;;;;4.70;3.60;;;;;;;;;;5115653;28;20298;-81
2023/04/02 00:42:04;;;;;;;4.20;3.77;;;;;;;;;;5115307;28;20291;-81
2023/04/02 00:44:33;;;;;;;5.30;4.80;;;;;;;;;;5115547;28;20214;-81
2023/04/02 00:47:03;;;;;;;6.03;4.73;;;;;;;;;;5115503;28;20246;-81
2023/04/02 00:49:35;;;;;;;5.43;4.43;;;;;;;;;;5115335;28;20192;-81
2023/04/02 00:52:05;;;;;;;5.93;4.87;;;;;;;;;;5115774;28;20226;-81
2023/04/02 00:54:34;;;;;;;9.57;4.30;;;;;;;;;;5115438;28;20200;-81
2023/04/02 00:57:04;;;;;;;6.20;3.70;;;;;;;;;;5115302;28;20192;-81
2023/04/02 00:59:34;;;;;;;6.80;5.60;;;;;;;;;;5115382;28;20226;-81
2023/04/02 01:02:21;;;;;;;3.47;2.23;;;;;;;;;;5115409;28;20224;-82
2023/04/02 01:04:52;;;;;;;5.17;4.57;;;;;;;;;;5114977;28;20204;-81
2023/04/02 01:07:24;;;;;;;4.43;4.03;;;;;;;;;;5114927;28;20237;-81
2023/04/02 01:10:02;;;;;;;4.73;4.07;;;;;;;;;;5114928;28;20192;-81
2023/04/02 01:12:36;;;;;;;10.53;7.83;;;;;;;;;;5115100;28;20257;-81
2023/04/02 01:15:09;;;;;;;6.23;4.37;;;;;;;;;;5114863;28;20203;-81
2023/04/02 01:17:47;;;;;;;4.67;4.07;;;;;;;;;;5114960;28;20231;-81
2023/04/02 01:20:31;;;;;;;8.13;4.80;;;;;;;;;;5114919;28;20268;-81
2023/04/02 01:23:04;;;;;;;4.10;3.43;;;;;;;;;;5081072;28;20236;-81
2023/04/02 01:25:36;;;;;;;3.83;3.53;;;;;;;;;;5115014;28;20192;-81
2023/04/02 01:28:09;;;;;;;4.90;3.23;;;;;;;;;;5114876;28;20287;-81
2023/04/02 01:30:40;;;;;;;7.87;3.47;;;;;;;;;;5113588;28;20352;-81
2023/04/02 01:33:08;;;;;;;6.13;4.73;;;;;;;;;;5114543;28;20208;-81
2023/04/02 01:35:39;;;;;;;5.17;4.77;;;;;;;;;;5114533;28;20200;-81
2023/04/02 01:38:12;;;;;;;5.07;4.67;;;;;;;;;;5114523;28;20200;-81
2023/04/02 01:40:46;;;;;;;4.07;3.67;;;;;;;;;;5114730;28;20196;-81
2023/04/02 01:43:18;;;;;;;6.23;4.63;;;;;;;;;;5114308;28;20196;-81
2023/04/02 01:45:48;;;;;;;4.57;3.90;;;;;;;;;;5114366;28;20196;-81
2023/04/02 01:48:18;;;;;;;4.87;4.47;;;;;;;;;;5114419;28;20278;-81
2023/04/02 01:50:50;;;;;;;4.63;4.17;;;;;;;;;;5114349;28;20196;-81
2023/04/02 01:53:19;;;;;;;7.73;6.30;;;;;;;;;;5114261;28;20200;-81
2023/04/02 01:55:48;;;;;;;5.10;4.03;;;;;;;;;;5113774;28;20192;-81
2023/04/02 01:58:18;;;;;;;7.77;5.20;;;;;;;;;;5114072;28;20227;-81
2023/04/02 02:00:50;;;;;;;8.57;5.80;;;;;;;;;;5113972;28;20220;-81
2023/04/02 02:03:20;;;;;;;5.67;5.00;;;;;;;;;;5113918;28;20203;-81
2023/04/02 02:05:49;;;;;;;4.47;4.07;;;;;;;;;;5114042;28;20224;-81
2023/04/02 02:08:28;;;;;;;4.73;4.33;;;;;;;;;;5113535;28;20236;-81
2023/04/02 02:10:57;;;;;;;7.57;5.37;;;;;;;;;;5113877;28;20227;-81
2023/04/02 02:13:25;;;;;;;5.33;4.20;;;;;;;;;;5113669;28;20257;-81
2023/04/02 02:15:57;;;;;;;5.70;4.07;;;;;;;;;;5113969;28;20196;-81
2023/04/02 02:18:26;;;;;;;5.17;4.20;;;;;;;;;;5113782;28;20219;-81
2023/04/02 02:20:55;;;;;;;4.43;3.50;;;;;;;;;;5113504;28;20203;-81
2023/04/02 02:23:24;;;;;;;7.47;4.37;;;;;;;;;;5113132;28;20234;-81
2023/04/02 02:25:55;;;;;;;4.33;3.93;;;;;;;;;;5113501;28;20196;-81
2023/04/02 02:28:26;;;;;;;4.23;3.87;;;;;;;;;;5113380;28;20275;-81
2023/04/02 02:30:58;;;;;;;6.70;4.33;;;;;;;;;;5113633;28;20197;-81
2023/04/02 02:33:27;;;;;;;4.20;3.80;;;;;;;;;;5113326;28;20252;-81
2023/04/02 02:35:59;;;;;;;6.27;4.50;;;;;;;;;;5113315;28;20231;-81
2023/04/02 02:38:33;;;;;;;5.87;4.90;;;;;;;;;;5113429;28;20291;-81
2023/04/02 02:41:04;;;;;;;4.63;4.13;;;;;;;;;;5113211;28;20250;-81
2023/04/02 02:43:33;;;;;;;4.97;3.70;;;;;;;;;;5113158;28;20260;-81
2023/04/02 02:46:03;;;;;;;7.47;5.27;;;;;;;;;;5113553;28;20199;-81
2023/04/02 02:48:35;;;;;;;4.97;3.90;;;;;;;;;;5113072;28;20227;-81
2023/04/02 02:51:07;;;;;;;7.10;4.47;;;;;;;;;;5113135;28;20219;-81
2023/04/02 02:53:46;;;;;;;3.83;3.23;;;;;;;;;;5113125;28;20189;-81
2023/04/02 02:56:14;;;;;;;4.67;4.27;;;;;;;;;;5113210;28;20236;-81
2023/04/02 02:58:43;;;;;;;9.03;5.03;;;;;;;;;;5113241;28;20192;-81
2023/04/02 03:01:13;;;;;;;5.17;3.90;;;;;;;;;;5113337;28;20192;-81
2023/04/02 03:03:41;;;;;;;4.07;3.27;;;;;;;;;;5112854;28;20201;-81
2023/04/02 03:06:12;;;;;;;5.47;3.50;;;;;;;;;;5113193;28;20282;-81
2023/04/02 03:08:42;;;;;;;4.03;3.27;;;;;;;;;;5113249;28;20254;-81
2023/04/02 03:11:13;;;;;;;3.40;3.10;;;;;;;;;;5112864;28;20231;-81
2023/04/02 03:13:46;;;;;;;4.63;4.17;;;;;;;;;;5112982;28;20253;-81
2023/04/02 03:16:19;;;;;;;4.43;4.03;;;;;;;;;;5113141;28;20292;-81
2023/04/02 03:18:52;;;;;;;3.37;3.07;;;;;;;;;;5112812;28;20198;-81
2023/04/02 03:21:26;;;;;;;3.30;3.00;;;;;;;;;;5112949;28;20232;-81
2023/04/02 03:23:55;;;;;;;7.47;4.30;;;;;;;;;;5113066;28;20291;-81
2023/04/02 03:26:27;;;;;;;7.90;4.70;;;;;;;;;;5112462;28;20197;-81
2023/04/02 03:28:57;;;;;;;4.70;4.10;;;;;;;;;;5113143;28;20280;-81
2023/04/02 03:31:33;;;;;;;5.00;4.30;;;;;;;;;;5112868;28;20263;-81
2023/04/02 03:34:05;;;;;;;4.20;3.67;;;;;;;;;;5112465;28;20216;-81
2023/04/02 03:36:37;;;;;;;4.43;3.83;;;;;;;;;;5112521;28;20235;-81
2023/04/02 03:39:10;;;;;;;5.20;4.70;;;;;;;;;;5112393;28;20228;-81
2023/04/02 03:41:43;;;;;;;5.80;4.03;;;;;;;;;;5112569;28;20196;-81
2023/04/02 03:44:18;;;;;;;6.40;4.23;;;;;;;;;;5112393;28;20188;-81
2023/04/02 03:46:49;;;;;;;5.07;4.23;;;;;;;;;;5112264;28;20195;-81
2023/04/02 03:49:20;;;;;;;5.37;4.43;;;;;;;;;;5112590;28;20212;-81
2023/04/02 03:51:53;;;;;;;6.27;5.20;;;;;;;;;;5112231;28;20232;-81
2023/04/02 03:54:22;;;;;;;7.53;4.90;;;;;;;;;;5113921;28;20199;-81
2023/04/02 03:56:53;;;;;;;6.10;5.50;;;;;;;;;;5116600;28;20220;-81
2023/04/02 03:59:24;;;;;;;4.97;4.50;;;;;;;;;;5116400;28;20217;-81
2023/04/02 04:01:56;;;;;;;6.30;4.63;;;;;;;;;;5115900;28;20214;-81
2023/04/02 04:04:26;;;;;;;6.77;4.87;;;;;;;;;;5116539;27;20235;-81
2023/04/02 04:06:56;;;;;;;4.57;3.67;;;;;;;;;;5116118;28;20311;-81
2023/04/02 04:09:27;;;;;;;6.40;4.03;;;;;;;;;;5116014;28;20247;-81
2023/04/02 04:12:00;;;;;;;5.37;3.77;;;;;;;;;;5115792;28;20216;-81
2023/04/02 04:14:31;;;;;;;5.10;4.70;;;;;;;;;;5115979;28;20199;-81
2023/04/02 04:17:04;;;;;;;3.97;3.43;;;;;;;;;;5115923;28;20296;-81
2023/04/02 04:19:35;;;;;;;4.83;4.43;;;;;;;;;;5115932;28;20188;-81
2023/04/02 04:22:10;;;;;;;4.60;3.80;;;;;;;;;;5115952;28;20224;-81
2023/04/02 04:24:39;;;;;;;4.77;4.23;;;;;;;;;;5115411;28;20202;-81
2023/04/02 04:27:09;;;;;;;4.57;4.10;;;;;;;;;;5115649;28;20287;-81
2023/04/02 04:29:44;;;;;;;4.70;4.30;;;;;;;;;;5115860;28;20216;-81
2023/04/02 04:32:25;;;;;;;4.07;3.77;;;;;;;;;;5115508;28;20199;-81
2023/04/02 04:34:57;;;;;;;4.30;3.97;;;;;;;;;;5115679;28;20207;-81
2023/04/02 04:37:28;;;;;;;5.47;3.97;;;;;;;;;;5115687;28;20200;-81
2023/04/02 04:39:58;;;;;;;4.90;4.47;;;;;;;;;;5115206;28;20229;-81
2023/04/02 04:42:29;;;;;;;7.60;4.50;;;;;;;;;;5115599;28;20203;-81
2023/04/02 04:45:01;;;;;;;5.27;4.07;;;;;;;;;;5115334;28;20189;-81
2023/04/02 04:47:32;;;;;;;5.27;4.77;;;;;;;;;;5115074;28;20252;-81
2023/04/02 04:50:04;;;;;;;4.00;3.60;;;;;;;;;;5115278;28;20216;-81
2023/04/02 04:52:34;;;;;;;5.17;3.90;;;;;;;;;;5115394;28;20249;-81
2023/04/02 04:55:03;;;;;;;3.93;3.17;;;;;;;;;;5115135;28;20203;-81
2023/04/02 04:57:33;;;;;;;10.03;5.17;;;;;;;;;;5115114;28;20248;-81
2023/04/02 05:00:06;;;;;;;5.67;4.33;;;;;;;;;;5115506;28;20299;-81
2023/04/02 05:02:40;;;;;;;7.67;3.70;;;;;;;;;;5115076;28;20293;-81
2023/04/02 05:05:17;;;;;;;4.90;4.47;;;;;;;;;;5114947;28;20207;-81
2023/04/02 05:07:48;;;;;;;12.30;4.33;;;;;;;;;;5115115;28;20199;-81
2023/04/02 05:10:20;;;;;;;4.53;3.80;;;;;;;;;;5114892;28;20258;-81
2023/04/02 05:12:51;;;;;;;5.30;3.60;;;;;;;;;;5114824;28;20283;-81
2023/04/02 05:15:23;;;;;;;8.10;3.77;;;;;;;;;;5114717;28;20302;-81
2023/04/02 05:17:56;;;;;;;5.20;3.97;;;;;;;;;;5114547;28;20290;-81
2023/04/02 05:20:26;;;;;;;3.63;3.30;;;;;;;;;;5114841;28;20200;-82
2023/04/02 05:22:56;;;;;;;4.37;3.60;;;;;;;;;;5114121;28;20258;-81
2023/04/02 05:25:26;;;;;;;5.93;3.40;;;;;;;;;;5115059;28;20193;-82
2023/04/02 05:27:57;;;;;;;3.07;2.70;;;;;;;;;;5114675;28;20203;-82
2023/04/02 05:30:45;;;;;;;5.10;2.97;;;;;;;;;;5114645;28;20216;-82
2023/04/02 05:33:26;;;;;;;3.77;2.97;;;;;;;;;;5114407;28;20196;-82
2023/04/02 05:35:58;;;;;;;2.60;2.40;;;;;;;;;;5114485;28;20200;-82
2023/04/02 05:38:28;;;;;;;2.93;2.73;;;;;;;;;;5114512;28;20295;-82
2023/04/02 05:41:00;;;;;;;3.60;3.20;;;;;;;;;;5114440;28;20196;-82
2023/04/02 05:43:30;;;;;;;4.20;2.80;;;;;;;;;;5113997;28;20196;-82
2023/04/02 05:46:00;;;;;;;3.50;3.20;;;;;;;;;;5114409;27;20193;-82
2023/04/02 05:48:33;;;;;;;3.70;3.27;;;;;;;;;;5114064;28;20218;-82
2023/04/02 05:51:03;;;;;;;2.70;2.50;;;;;;;;;;5114473;28;20254;-82
2023/04/02 05:53:34;;;;;;;3.63;3.07;;;;;;;;;;5114174;28;20224;-82
2023/04/02 05:56:05;;;;;;;2.93;2.67;;;;;;;;;;5113997;28;20226;-82
2023/04/02 05:58:36;;;;;;;4.27;2.73;;;;;;;;;;5113984;28;20200;-82
2023/04/02 06:01:10;;;;;;;3.73;2.40;;;;;;;;;;5114123;28;20203;-82
2023/04/02 06:03:44;;;;;;;3.57;1.97;;;;;;;;;;5113967;28;20238;-82
2023/04/02 06:06:17;;;;;;;4.23;2.60;;;;;;;;;;5113493;28;20233;-82
2023/04/02 06:08:49;;;;;;;1.63;1.53;;;;;;;;;;5113852;28;20194;-82
2023/04/02 06:11:19;;;;;;;2.53;2.30;;;;;;;;;;5113910;28;20229;-82
2023/04/02 06:13:48;;;;;;;4.70;2.50;;;;;;;;;;5113536;28;20222;-82
2023/04/02 06:16:16;;;;;;;4.43;2.60;;;;;;;;;;5113194;28;20231;-82
2023/04/02 06:18:46;;;;;;;2.90;2.43;;;;;;;;;;5113614;28;20203;-82
2023/04/02 06:21:18;;;;;;;8.70;2.47;;;;;;;;;;5113732;28;20248;-82
2023/04/02 06:23:48;;;;;;;3.00;2.47;;;;;;;;;;5113266;28;20326;-82
2023/04/02 06:26:20;;;;;;;1.90;1.80;;;;;;;;;;5113726;28;20244;-82
2023/04/02 06:28:51;;;;;;;2.57;2.07;;;;;;;;;;5113302;28;20200;-82
2023/04/02 06:31:27;;;;;;;5.17;2.17;;;;;;;;;;5113204;28;20289;-82
2023/04/02 06:33:57;;;;;;;5.17;2.20;;;;;;;;;;5113679;28;20204;-82
2023/04/02 06:36:27;;;;;;;3.07;2.77;;;;;;;;;;5113376;28;20239;-82
2023/04/02 06:38:56;;;;;;;2.33;1.90;;;;;;;;;;5113094;28;20256;-82
2023/04/02 06:41:25;;;;;;;2.73;2.30;;;;;;;;;;5113024;28;20242;-82
2023/04/02 06:43:55;;;;;;;2.17;1.97;;;;;;;;;;5113345;28;20206;-82
2023/04/02 06:46:27;;;;;;;2.37;2.07;;;;;;;;;;5112892;28;20205;-82
2023/04/02 06:49:00;;;;;;;2.07;1.87;;;;;;;;;;5113627;28;20195;-82
2023/04/02 06:51:29;;;;;;;6.43;2.30;;;;;;;;;;5113131;28;20256;-82
2023/04/02 06:53:58;;;;;;;4.57;1.70;;;;;;;;;;5113068;28;20206;-82
2023/04/02 06:56:30;;;;;;;6.10;2.17;;;;;;;;;;5113163;28;20224;-82
2023/04/02 06:58:59;;;;;;;2.77;2.37;;;;;;;;;;5113048;28;20218;-82
2023/04/02 07:01:29;;;;;;;2.20;1.97;;;;;;;;;;5113283;28;20230;-82
2023/04/02 07:04:00;;;;;;;3.87;2.20;;;;;;;;;;5112972;28;20261;-82
2023/04/02 07:06:28;;;;;;;3.03;1.87;;;;;;;;;;5113177;28;20227;-82
2023/04/02 07:08:56;;;;;;;2.47;1.87;;;;;;;;;;5112426;28;20203;-82
2023/04/02 07:11:25;;;;;;;2.63;1.80;;;;;;;;;;5113123;28;20314;-81
2023/04/02 07:13:54;;;;;;;1.80;1.70;;;;;;;;;;5112935;28;20188;-81
2023/04/02 07:16:24;;;;;;;4.23;2.40;;;;;;;;;;5112450;28;20239;-81
2023/04/02 07:18:54;;;;;;;2.53;2.30;;;;;;;;;;5112870;28;20230;-82
2023/04/02 07:21:23;;;;;;;3.80;2.23;;;;;;;;;;5112601;28;20196;-82
2023/04/02 07:23:52;;;;;;;2.37;2.17;;;;;;;;;;5112557;28;20206;-82
2023/04/02 07:26:21;;;;;;;2.47;1.90;;;;;;;;;;5112864;28;20222;-82
2023/04/02 07:28:50;;;;;;;5.03;2.60;;;;;;;;;;5113736;28;20283;-82
2023/04/02 07:31:20;;;;;;;4.77;2.70;;;;;;;;;;5116813;28;20275;-82
2023/04/02 07:33:48;;;;;;;3.10;2.53;;;;;;;;;;5117373;28;20214;-82
2023/04/02 07:36:17;;;;;;;2.53;2.33;;;;;;;;;;5116647;28;20241;-82
2023/04/02 07:38:47;;;;;;;2.93;2.60;;;;;;;;;;5117351;28;20200;-82
2023/04/02 07:41:16;;;;;;;3.13;2.43;;;;;;;;;;5116874;28;20220;-82
2023/04/02 07:43:45;;;;;;;3.50;2.00;;;;;;;;;;5116780;28;20260;-82
2023/04/02 07:46:15;;;;;;;2.73;2.47;;;;;;;;;;5116844;28;20196;-82
2023/04/02 07:48:44;;;;;;;2.87;2.60;;;;;;;;;;5116992;28;20291;-82
2023/04/02 07:51:16;;;;;;;4.53;2.37;;;;;;;;;;5116601;28;20212;-82
2023/04/02 07:53:48;;;;;;;2.73;2.43;;;;;;;;;;5116810;28;20203;-82
2023/04/02 07:56:19;;;;;;;12.10;2.90;;;;;;;;;;5116602;28;20192;-82
2023/04/02 07:58:48;;;;;;;3.77;3.00;;;;;;;;;;5116659;28;20195;-82
2023/04/02 08:01:18;;;;;;;2.30;2.10;;;;;;;;;;5116287;28;20193;-82
2023/04/02 08:03:47;;;;;;;2.37;2.07;;;;;;;;;;5116488;28;20226;-82
2023/04/02 08:06:16;;;;;;;5.90;2.10;;;;;;;;;;5116387;28;20227;-82
2023/04/02 08:08:44;;;;;;;3.03;2.13;;;;;;;;;;5116413;28;20287;-82
2023/04/02 08:11:12;;;;;;;3.67;2.27;;;;;;;;;;5116276;28;20214;-82
2023/04/02 08:13:42;;;;;;;3.23;2.33;;;;;;;;;;5116188;28;20231;-82
2023/04/02 08:16:11;;;;;;;3.90;2.40;;;;;;;;;;5116100;28;20207;-82
2023/04/02 08:18:39;;;;;;;2.43;2.23;;;;;;;;;;5116269;28;20206;-82
2023/04/02 08:21:09;;;;;;;4.40;2.17;;;;;;;;;;5116129;28;20223;-82
2023/04/02 08:23:37;;;;;;;4.10;3.10;;;;;;;;;;5116025;28;20287;-82
2023/04/02 08:26:06;;;;;;;4.40;2.50;;;;;;;;;;5116071;27;20196;-82
2023/04/02 08:28:35;;;;;;;2.73;1.80;;;;;;;;;;5116255;28;20236;-82
2023/04/02 08:31:07;;;;;;;5.70;3.27;;;;;;;;;;5115529;28;20257;-82
2023/04/02 08:33:36;;;;;;;1.90;1.80;;;;;;;;;;5115670;28;20201;-82
2023/04/02 08:36:04;;;;;;;10.50;2.43;;;;;;;;;;5115662;28;20231;-82
2023/04/02 08:38:33;;;;;;;4.47;2.83;;;;;;;;;;5115521;28;20196;-82
2023/04/02 08:41:03;;;;;;;4.67;2.27;;;;;;;;;;5114893;28;20185;-82
2023/04/02 08:43:39;;;;;;;7.33;2.57;;;;;;;;;;5115725;28;20211;-82
2023/04/02 08:46:15;;;;;;;2.50;2.30;;;;;;;;;;5115759;28;20196;-82
2023/04/02 08:48:48;;;;;;;4.23;1.93;;;;;;;;;;5115868;28;20204;-82
2023/04/02 08:51:22;;;;;;;6.30;2.40;;;;;;;;;;5115233;28;20305;-84
2023/04/02 08:53:52;;;;;;;3.70;1.93;;;;;;;;;;5114938;28;20192;-83
2023/04/02 08:56:21;;;;;;;2.20;2.00;;;;;;;;;;5115331;28;20228;-83
2023/04/02 08:58:52;;;;;;;3.23;1.70;;;;;;;;;;5115005;28;20197;-83
2023/04/02 09:01:30;;;;;;;2.90;2.40;;;;;;;;;;5114383;28;20635;-83
2023/04/02 09:03:59;;;;;;;2.17;2.07;;;;;;;;;;5114964;27;20201;-84
2023/04/02 09:06:28;;;;;;;4.00;2.60;;;;;;;;;;5115153;28;20224;-83
2023/04/02 09:08:57;;;;;;;2.00;1.90;;;;;;;;;;5114877;27;20200;-83
2023/04/02 09:11:26;;;;;;;3.97;2.40;;;;;;;;;;5114803;28;20212;-83
2023/04/02 09:13:56;;;;;;;2.20;1.53;;;;;;;;;;5114676;28;20214;-83
2023/04/02 09:16:38;;;;;;;3.40;2.20;;;;;;;;;;5114578;28;20226;-83
2023/04/02 09:19:15;;;;;;;4.23;2.27;;;;;;;;;;5114611;28;20239;-83
2023/04/02 09:21:44;;;;;;;2.87;1.80;;;;;;;;;;5114370;28;20234;-83
2023/04/02 09:24:13;;;;;;;4.20;2.30;;;;;;;;;;5114358;28;20196;-83
2023/04/02 09:26:41;;;;;;;4.97;3.77;;;;;;;;;;5114463;28;20295;-83
2023/04/02 09:29:24;;;;;;;2.30;1.77;;;;;;;;;;5114492;28;20222;-83
2023/04/02 09:31:57;;;;;;;3.60;1.90;;;;;;;;;;5113831;28;20478;-84
2023/04/02 09:34:30;;;;;;;1.60;1.50;;;;;;;;;;5114376;28;20239;-83
2023/04/02 09:37:07;;;;;;;3.33;1.73;;;;;;;;;;5114326;28;20300;-83
2023/04/02 09:39:35;;;;;;;3.23;2.13;;;;;;;;;;5114115;28;20200;-84
2023/04/02 09:42:07;;;;;;;3.43;1.67;;;;;;;;;;5114037;28;20230;-83
2023/04/02 09:44:36;;;;;;;2.63;1.67;;;;;;;;;;5114353;28;20222;-84
2023/04/02 09:47:06;;;;;;;3.07;1.90;;;;;;;;;;5114163;28;20231;-83
2023/04/02 09:49:35;;;;;;;2.07;1.97;;;;;;;;;;5113847;28;20196;-83
2023/04/02 09:52:21;;;;;;;2.30;2.10;;;;;;;;;;5112746;28;20266;-83
2023/04/02 09:55:08;;;;;;;1.60;1.50;;;;;;;;;;5113993;28;20227;-84
2023/04/02 09:57:37;;;;;;;4.10;1.70;;;;;;;;;;5113845;28;20253;-84
2023/04/02 10:00:11;;;;;;;4.93;2.17;;;;;;;;;;5113739;28;20234;-83
2023/04/02 10:03:03;;;;;;;2.00;1.73;;;;;;;;;;5113928;28;20264;-84
2023/04/02 10:05:33;;;;;;;4.37;1.97;;;;;;;;;;5114017;27;20220;-83
2023/04/02 10:08:08;;;;;;;1.90;1.53;;;;;;;;;;5113611;28;20284;-84
2023/04/02 10:10:39;;;;;;;3.90;2.20;;;;;;;;;;5113887;28;20207;-83
2023/04/02 10:13:10;;;;;;;3.13;1.90;;;;;;;;;;5113633;28;20212;-84
2023/04/02 10:15:40;;;;;;;4.47;1.90;;;;;;;;;;5113296;28;20235;-84
2023/04/02 10:18:13;;;;;;;4.10;1.67;;;;;;;;;;5113452;28;20239;-84
2023/04/02 10:20:42;;;;;;;3.07;1.90;;;;;;;;;;5113138;28;20226;-84
2023/04/02 10:23:19;;;;;;;1.77;1.67;;;;;;;;;;5112802;28;20251;-83
2023/04/02 10:25:50;;;;;;;1.50;1.40;;;;;;;;;;5113569;28;20296;-83
2023/04/02 10:28:23;;;;;;;2.47;1.97;;;;;;;;;;5113633;28;20265;-84
2023/04/02 10:30:56;;;;;;;4.50;1.73;;;;;;;;;;5112988;28;20252;-83
2023/04/02 10:33:28;;;;;;;6.33;2.27;;;;;;;;;;5112871;28;20307;-84
2023/04/02 10:36:01;;;;;;;5.13;2.03;;;;;;;;;;5113163;28;20200;-83
2023/04/02 10:38:33;;;;;;;3.20;1.83;;;;;;;;;;5112824;28;20206;-84
2023/04/02 10:41:07;;;;;;;3.60;1.80;;;;;;;;;;5113108;28;20211;-84
2023/04/02 10:43:39;;;;;;;5.17;2.37;;;;;;;;;;5113482;28;20208;-84
2023/04/02 10:46:11;;;;;;;2.40;1.83;;;;;;;;;;5113271;28;20235;-84
2023/04/02 10:48:45;;;;;;;2.50;1.83;;;;;;;;;;5113287;28;20204;-84
2023/04/02 10:51:17;;;;;;;2.30;1.87;;;;;;;;;;5112862;28;20235;-84
2023/04/02 10:53:48;;;;;;;2.67;1.70;;;;;;;;;;5112460;28;20222;-84
2023/04/02 10:56:17;;;;;;;3.77;2.77;;;;;;;;;;5112910;28;20196;-84
2023/04/02 10:58:49;;;;;;;2.10;1.90;;;;;;;;;;5113195;28;20299;-83
2023/04/02 11:01:19;;;;;;;1.87;1.50;;;;;;;;;;5112823;28;20196;-84
2023/04/02 11:03:52;;;;;;;1.63;1.53;;;;;;;;;;5112504;28;20192;-84
2023/04/02 11:06:25;;;;;;;2.30;1.40;;;;;;;;;;5112886;28;20289;-84
2023/04/02 11:08:57;;;;;;;1.90;1.60;;;;;;;;;;5113030;28;20200;-84
2023/04/02 11:11:27;;;;;;;1.57;1.47;;;;;;;;;;5112765;28;20200;-83
2023/04/02 11:13:58;;;;;;;2.43;1.70;;;;;;;;;;5112340;28;20265;-84
2023/04/02 11:16:27;;;;;;;1.70;1.60;;;;;;;;;;5112556;28;20196;-84
2023/04/02 11:19:14;;;;;;;2.20;1.87;;;;;;;;;;5112701;28;20207;-84
2023/04/02 11:21:44;;;;;;;2.43;2.23;;;;;;;;;;5112309;28;20204;-84
2023/04/02 11:24:32;;;;;;;2.13;1.80;;;;;;;;;;5112436;28;20287;-84
2023/04/02 11:27:22;;;;;;;3.03;1.67;;;;;;;;;;5112532;28;20204;-84
2023/04/02 11:29:51;;;;;;;1.80;1.63;;;;;;;;;;5108070;28;20204;-84
2023/04/02 11:32:27;;;;;;;2.50;2.00;;;;;;;;;;5112710;28;20236;-84
2023/04/02 11:35:04;;;;;;;1.70;1.60;;;;;;;;;;5112646;28;20229;-84
2023/04/02 11:37:38;;;;;;;1.43;1.33;;;;;;;;;;5112250;28;20246;-83
2023/04/02 11:40:25;;;;;;;1.80;1.50;;;;;;;;;;5112625;28;20200;-84
2023/04/02 11:42:53;;;;;;;1.87;1.37;;;;;;;;;;5112320;28;20192;-84
2023/04/02 11:45:40;;;;;;;3.63;1.93;;;;;;;;;;5112332;28;20206;-84
2023/04/02 11:48:32;;;;;;;2.67;1.93;;;;;;;;;;5112542;28;20208;-84
2023/04/02 11:51:03;;;;;;;2.97;2.10;;;;;;;;;;5112295;28;20205;-84
2023/04/02 11:53:35;;;;;;;2.57;1.93;;;;;;;;;;5112404;28;20280;-84
2023/04/02 11:56:08;;;;;;;4.50;2.30;;;;;;;;;;5112493;28;20228;-84
2023/04/02 11:58:43;;;;;;;1.53;1.43;;;;;;;;;;5112146;28;20295;-83
2023/04/02 12:01:24;;;;;;;1.40;1.30;;;;;;;;;;5112204;28;20205;-83
2023/04/02 12:04:02;;;;;;;2.30;1.67;;;;;;;;;;5112059;28;20197;-84
2023/04/02 12:06:38;;;;;;;1.20;1.20;;;;;;;;;;5091532;28;20245;-84
2023/04/02 12:09:14;;;;;;;2.07;1.87;;;;;;;;;;5091977;28;20203;-84
2023/04/02 12:11:43;;;;;;;2.23;2.00;;;;;;;;;;5091928;28;20214;-84
2023/04/02 12:14:26;;;;;;;3.50;2.00;;;;;;;;;;5091702;28;20222;-84
2023/04/02 12:16:55;;;;;;;3.70;2.13;;;;;;;;;;5095028;28;20232;-84
2023/04/02 12:19:24;;;;;;;2.20;1.40;;;;;;;;;;5095507;28;20205;-84
2023/04/02 12:21:53;;;;;;;1.27;1.10;;;;;;;;;;5095420;28;20223;-84
2023/04/02 12:24:24;;;;;;;2.13;1.70;;;;;;;;;;5095664;28;20194;-84
2023/04/02 12:27:07;;;;;;;2.63;1.80;;;;;;;;;;5095579;28;20197;-84
2023/04/02 12:29:37;;;;;;;2.30;1.20;;;;;;;;;;5095442;28;20200;-84
2023/04/02 12:32:17;;;;;;;2.00;1.80;;;;;;;;;;5095229;28;20204;-84
2023/04/02 12:34:46;;;;;;;3.67;1.53;;;;;;;;;;5095094;28;20225;-84
2023/04/02 12:37:20;;;;;;;4.27;1.40;;;;;;;;;;5095119;28;20203;-84
2023/04/02 12:39:54;;;;;;;1.70;1.60;;;;;;;;;;5095074;28;20249;-84
2023/04/02 12:42:27;;;;;;;4.63;1.57;;;;;;;;;;5095237;28;20229;-84
2023/04/02 12:44:55;;;;;;;1.10;1.10;;;;;;;;;;5094729;28;20262;-84
2023/04/02 12:47:24;;;;;;;3.43;1.77;;;;;;;;;;5094803;28;20471;-84
2023/04/02 12:49:53;;;;;;;1.50;1.40;;;;;;;;;;5094724;28;20213;-84
2023/04/02 12:52:22;;;;;;;3.30;1.40;;;;;;;;;;5094685;28;20209;-84
2023/04/02 12:54:52;;;;;;;3.50;1.80;;;;;;;;;;5094381;28;20412;-84
2023/04/02 12:57:31;;;;;;;2.70;1.80;;;;;;;;;;5095140;28;20290;-84
2023/04/02 13:00:04;;;;;;;1.73;1.60;;;;;;;;;;5094467;28;20226;-84
2023/04/02 13:02:33;;;;;;;1.80;1.50;;;;;;;;;;5094783;28;20288;-84
2023/04/02 13:05:02;;;;;;;2.73;1.60;;;;;;;;;;5094215;28;20186;-84
2023/04/02 13:07:32;;;;;;;3.50;2.50;;;;;;;;;;5094696;28;20207;-84
2023/04/02 13:10:02;;;;;;;2.90;1.43;;;;;;;;;;5094355;28;20230;-84
2023/04/02 13:12:34;;;;;;;1.97;1.80;;;;;;;;;;5094500;28;20211;-83
2023/04/02 13:15:03;;;;;;;2.13;1.80;;;;;;;;;;5094093;28;20223;-84
2023/04/02 13:17:39;;;;;;;2.70;1.90;;;;;;;;;;5094406;28;20205;-84
2023/04/02 13:20:26;;;;;;;2.13;1.50;;;;;;;;;;5094666;28;20199;-84
2023/04/02 13:22:54;;;;;;;2.30;1.43;;;;;;;;;;5093765;28;20330;-84
2023/04/02 13:25:28;;;;;;;3.50;2.10;;;;;;;;;;5094461;28;20222;-84
2023/04/02 13:27:58;;;;;;;3.50;1.70;;;;;;;;;;5094164;28;20265;-84
2023/04/02 13:30:28;;;;;;;9.63;1.73;;;;;;;;;;5094146;28;20228;-84
2023/04/02 13:32:56;;;;;;;3.57;1.60;;;;;;;;;;5094306;28;20241;-84
2023/04/02 13:35:25;;;;;;;2.67;1.80;;;;;;;;;;5093823;28;20191;-84
2023/04/02 13:37:54;;;;;;;1.40;1.30;;;;;;;;;;5093970;28;20204;-84
2023/04/02 13:40:22;;;;;;;1.90;1.60;;;;;;;;;;5094090;28;20249;-84
2023/04/02 13:42:51;;;;;;;2.30;1.67;;;;;;;;;;5094072;28;20202;-84
2023/04/02 13:45:25;;;;;;;1.47;1.37;;;;;;;;;;5093696;28;20393;-84
2023/04/02 13:47:53;;;;;;;1.73;1.63;;;;;;;;;;5093668;28;20253;-84
2023/04/02 13:50:23;;;;;;;3.23;1.40;;;;;;;;;;5093657;28;20202;-84
2023/04/02 13:52:52;;;;;;;1.53;1.43;;;;;;;;;;5093860;28;20225;-84
2023/04/02 13:55:21;;;;;;;3.37;1.60;;;;;;;;;;5093530;28;20229;-84
2023/04/02 13:57:50;;;;;;;1.67;1.57;;;;;;;;;;5093129;28;20275;-83
2023/04/02 14:00:19;;;;;;;1.73;1.40;;;;;;;;;;5093550;28;20198;-85
2023/04/02 14:02:50;;;;;;;1.80;1.27;;;;;;;;;;5093643;28;20293;-84
2023/04/02 14:05:26;;;;;;;2.03;1.30;;;;;;;;;;5093409;28;20237;-84
2023/04/02 14:08:02;;;;;;;1.30;1.23;;;;;;;;;;5093159;28;20274;-84
2023/04/02 14:10:36;;;;;;;1.93;1.30;;;;;;;;;;5093323;28;20221;-84
2023/04/02 14:13:15;;;;;;;1.93;1.30;;;;;;;;;;5093597;28;20224;-84
2023/04/02 14:15:56;;;;;;;1.40;1.30;;;;;;;;;;5093094;28;20294;-84
2023/04/02 14:18:40;;;;;;;4.33;1.33;;;;;;;;;;5092890;28;20223;-84
2023/04/02 14:21:15;;;;;;;2.47;2.07;;;;;;;;;;5093097;28;20351;-84
2023/04/02 14:23:50;;;;;;;2.73;1.50;;;;;;;;;;5092567;28;20300;-84
2023/04/02 14:26:22;;;;;;;2.47;1.80;;;;;;;;;;5093080;28;20237;-84
2023/04/02 14:28:56;;;;;;;1.17;1.10;;;;;;;;;;5093106;28;20226;-85
2023/04/02 14:31:27;;;;;;;1.17;1.13;;;;;;;;;;5092920;28;20294;-85
2023/04/02 14:34:01;;;;;;;3.13;2.37;;;;;;;;;;5092755;28;20212;-84
2023/04/02 14:36:32;;;;;;;2.10;1.50;;;;;;;;;;5092816;28;20302;-84
2023/04/02 14:39:04;;;;;;;1.60;1.50;;;;;;;;;;5092518;28;20203;-84
2023/04/02 14:41:35;;;;;;;1.60;1.33;;;;;;;;;;5092790;28;20202;-84
2023/04/02 14:44:04;;;;;;;1.67;1.23;;;;;;;;;;5092895;28;20215;-84
2023/04/02 14:46:34;;;;;;;1.73;1.63;;;;;;;;;;5092710;28;20294;-84
2023/04/02 14:49:12;;;;;;;1.00;1.00;;;;;;;;;;5092901;28;20210;-84
2023/04/02 14:51:42;;;;;;;1.20;1.10;;;;;;;;;;5092669;28;20241;-84
2023/04/02 14:54:13;;;;;;;3.40;1.90;;;;;;;;;;5092631;28;20214;-84
2023/04/02 14:56:46;;;;;;;1.93;1.60;;;;;;;;;;5092740;28;20206;-84
2023/04/02 14:59:22;;;;;;;1.43;1.33;;;;;;;;;;5092544;28;20232;-84
2023/04/02 15:01:51;;;;;;;1.73;1.60;;;;;;;;;;5092961;28;20229;-84
2023/04/02 15:04:23;;;;;;;2.37;1.27;;;;;;;;;;5092541;28;20198;-84
2023/04/02 15:06:54;;;;;;;1.63;1.37;;;;;;;;;;5092562;28;20221;-84
2023/04/02 15:09:24;;;;;;;1.57;1.30;;;;;;;;;;5092556;28;20323;-85
2023/04/02 15:11:54;;;;;;;1.30;1.20;;;;;;;;;;5092368;28;20245;-84